sensor_id;sensor_type;location;lat;lon;timestamp;P1;durP1;ratioP1;P2;durP2;ratioP2
1414;SDS011;702;49.466;11.086;2023-09-18T00:00:43;8.30;;;7.60;;
1414;SDS011;702;49.466;11.086;2023-09-18T00:03:11;9.57;;;8.70;;
1414;SDS011;702;49.466;11.086;2023-09-18T00:05:38;8.97;;;8.13;;
1414;SDS011;702;49.466;11.086;2023-09-18T00:08:05;9.43;;;8.60;;
1414;SDS011;702;49.466;11.086;2023-09-18T00:10:34;8.47;;;7.70;;
1414;SDS011;702;49.466;11.086;2023-09-18T00:13:01;8.67;;;7.97;;
1414;SDS011;702;49.466;11.086;2023-09-18T00:15:29;9.27;;;8.43;;
1414;SDS011;702;49.466;11.086;2023-09-18T00:17:59;9.03;;;8.23;;
1414;SDS011;702;49.466;11.086;2023-09-18T00:20:26;9.27;;;8.47;;
1414;SDS011;702;49.466;11.086;2023-09-18T00:22:55;9.13;;;8.40;;
1414;SDS011;702;49.466;11.086;2023-09-18T00:25:22;9.43;;;8.43;;
1414;SDS011;702;49.466;11.086;2023-09-18T00:27:49;9.17;;;8.37;;
1414;SDS011;702;49.466;11.086;2023-09-18T00:30:18;8.70;;;8.00;;
1414;SDS011;702;49.466;11.086;2023-09-18T00:32:45;8.87;;;8.07;;
1414;SDS011;702;49.466;11.086;2023-09-18T00:35:17;8.87;;;7.97;;
1414;SDS011;702;49.466;11.086;2023-09-18T00:37:44;8.70;;;7.90;;
1414;SDS011;702;49.466;11.086;2023-09-18T00:40:12;8.27;;;7.67;;
1414;SDS011;702;49.466;11.086;2023-09-18T00:42:39;8.50;;;7.70;;
1414;SDS011;702;49.466;11.086;2023-09-18T00:45:07;8.37;;;7.60;;
1414;SDS011;702;49.466;11.086;2023-09-18T00:47:36;8.67;;;7.93;;
1414;SDS011;702;49.466;11.086;2023-09-18T00:50:03;9.00;;;8.30;;
1414;SDS011;702;49.466;11.086;2023-09-18T00:52:35;8.33;;;7.60;;
1414;SDS011;702;49.466;11.086;2023-09-18T00:55:04;8.87;;;8.10;;
1414;SDS011;702;49.466;11.086;2023-09-18T00:57:34;8.40;;;7.67;;
1414;SDS011;702;49.466;11.086;2023-09-18T01:00:02;8.07;;;7.47;;
1414;SDS011;702;49.466;11.086;2023-09-18T01:02:31;8.30;;;7.50;;
1414;SDS011;702;49.466;11.086;2023-09-18T01:04:58;8.80;;;8.00;;
1414;SDS011;702;49.466;11.086;2023-09-18T01:07:26;7.70;;;7.10;;
1414;SDS011;702;49.466;11.086;2023-09-18T01:09:56;8.53;;;7.83;;
1414;SDS011;702;49.466;11.086;2023-09-18T01:12:28;7.30;;;6.70;;
1414;SDS011;702;49.466;11.086;2023-09-18T01:15:05;8.80;;;8.00;;
1414;SDS011;702;49.466;11.086;2023-09-18T01:17:38;8.20;;;7.60;;
1414;SDS011;702;49.466;11.086;2023-09-18T01:20:08;7.80;;;7.17;;
1414;SDS011;702;49.466;11.086;2023-09-18T01:22:38;8.20;;;7.40;;
1414;SDS011;702;49.466;11.086;2023-09-18T01:25:06;9.50;;;7.50;;
1414;SDS011;702;49.466;11.086;2023-09-18T01:27:33;7.73;;;7.03;;
1414;SDS011;702;49.466;11.086;2023-09-18T01:30:02;8.43;;;7.63;;
1414;SDS011;702;49.466;11.086;2023-09-18T01:32:29;8.63;;;7.90;;
1414;SDS011;702;49.466;11.086;2023-09-18T01:34:59;8.50;;;7.70;;
1414;SDS011;702;49.466;11.086;2023-09-18T01:37:31;7.73;;;7.13;;
1414;SDS011;702;49.466;11.086;2023-09-18T01:40:02;8.03;;;7.30;;
1414;SDS011;702;49.466;11.086;2023-09-18T01:42:33;7.83;;;7.23;;
1414;SDS011;702;49.466;11.086;2023-09-18T01:45:01;8.53;;;7.63;;
1414;SDS011;702;49.466;11.086;2023-09-18T01:47:30;7.60;;;6.90;;
1414;SDS011;702;49.466;11.086;2023-09-18T01:49:59;7.97;;;7.27;;
1414;SDS011;702;49.466;11.086;2023-09-18T01:52:31;7.67;;;6.97;;
1414;SDS011;702;49.466;11.086;2023-09-18T01:54:59;8.20;;;7.50;;
1414;SDS011;702;49.466;11.086;2023-09-18T01:57:30;7.83;;;7.10;;
1414;SDS011;702;49.466;11.086;2023-09-18T01:59:57;7.97;;;7.20;;
1414;SDS011;702;49.466;11.086;2023-09-18T02:02:25;8.70;;;7.87;;
1414;SDS011;702;49.466;11.086;2023-09-18T02:04:52;8.23;;;7.53;;
1414;SDS011;702;49.466;11.086;2023-09-18T02:07:20;8.20;;;7.40;;
1414;SDS011;702;49.466;11.086;2023-09-18T02:09:48;8.00;;;7.30;;
1414;SDS011;702;49.466;11.086;2023-09-18T02:12:16;8.53;;;7.80;;
1414;SDS011;702;49.466;11.086;2023-09-18T02:14:45;7.47;;;6.77;;
1414;SDS011;702;49.466;11.086;2023-09-18T02:17:12;8.57;;;7.77;;
1414;SDS011;702;49.466;11.086;2023-09-18T02:19:39;8.60;;;7.80;;
1414;SDS011;702;49.466;11.086;2023-09-18T02:22:07;8.73;;;8.00;;
1414;SDS011;702;49.466;11.086;2023-09-18T02:24:34;10.00;;;7.80;;
1414;SDS011;702;49.466;11.086;2023-09-18T02:27:03;8.10;;;7.40;;
1414;SDS011;702;49.466;11.086;2023-09-18T02:29:33;8.33;;;7.53;;
1414;SDS011;702;49.466;11.086;2023-09-18T02:32:00;9.23;;;7.60;;
1414;SDS011;702;49.466;11.086;2023-09-18T02:34:28;9.17;;;8.40;;
1414;SDS011;702;49.466;11.086;2023-09-18T02:36:55;9.33;;;8.53;;
1414;SDS011;702;49.466;11.086;2023-09-18T02:39:22;8.47;;;7.77;;
1414;SDS011;702;49.466;11.086;2023-09-18T02:41:50;9.03;;;8.23;;
1414;SDS011;702;49.466;11.086;2023-09-18T02:44:17;8.40;;;7.70;;
1414;SDS011;702;49.466;11.086;2023-09-18T02:46:46;8.83;;;8.03;;
1414;SDS011;702;49.466;11.086;2023-09-18T02:49:15;9.40;;;8.50;;
1414;SDS011;702;49.466;11.086;2023-09-18T02:51:42;8.70;;;8.00;;
1414;SDS011;702;49.466;11.086;2023-09-18T02:54:10;8.03;;;7.43;;
1414;SDS011;702;49.466;11.086;2023-09-18T02:56:39;8.33;;;7.63;;
1414;SDS011;702;49.466;11.086;2023-09-18T02:59:07;8.80;;;7.97;;
1414;SDS011;702;49.466;11.086;2023-09-18T03:01:35;9.10;;;8.30;;
1414;SDS011;702;49.466;11.086;2023-09-18T03:04:03;8.20;;;7.50;;
1414;SDS011;702;49.466;11.086;2023-09-18T03:06:31;9.43;;;8.60;;
1414;SDS011;702;49.466;11.086;2023-09-18T03:08:59;9.23;;;8.10;;
1414;SDS011;702;49.466;11.086;2023-09-18T03:11:28;8.87;;;7.97;;
1414;SDS011;702;49.466;11.086;2023-09-18T03:13:55;9.67;;;8.70;;
1414;SDS011;702;49.466;11.086;2023-09-18T03:16:23;8.37;;;7.50;;
1414;SDS011;702;49.466;11.086;2023-09-18T03:18:50;8.60;;;7.90;;
1414;SDS011;702;49.466;11.086;2023-09-18T03:21:19;9.60;;;8.57;;
1414;SDS011;702;49.466;11.086;2023-09-18T03:23:47;9.27;;;8.33;;
1414;SDS011;702;49.466;11.086;2023-09-18T03:26:14;9.57;;;8.70;;
1414;SDS011;702;49.466;11.086;2023-09-18T03:28:42;8.60;;;7.80;;
1414;SDS011;702;49.466;11.086;2023-09-18T03:31:09;10.93;;;8.27;;
1414;SDS011;702;49.466;11.086;2023-09-18T03:33:36;10.67;;;9.70;;
1414;SDS011;702;49.466;11.086;2023-09-18T03:36:04;9.10;;;8.20;;
1414;SDS011;702;49.466;11.086;2023-09-18T03:38:34;10.60;;;8.07;;
1414;SDS011;702;49.466;11.086;2023-09-18T03:41:03;9.63;;;8.70;;
1414;SDS011;702;49.466;11.086;2023-09-18T03:43:31;9.17;;;8.37;;
1414;SDS011;702;49.466;11.086;2023-09-18T03:46:02;9.63;;;8.73;;
1414;SDS011;702;49.466;11.086;2023-09-18T03:48:31;8.10;;;7.40;;
1414;SDS011;702;49.466;11.086;2023-09-18T03:51:02;10.07;;;9.27;;
1414;SDS011;702;49.466;11.086;2023-09-18T03:53:30;8.73;;;7.70;;
1414;SDS011;702;49.466;11.086;2023-09-18T03:56:01;9.70;;;7.60;;
1414;SDS011;702;49.466;11.086;2023-09-18T03:58:28;9.40;;;8.63;;
1414;SDS011;702;49.466;11.086;2023-09-18T04:00:55;8.20;;;7.50;;
1414;SDS011;702;49.466;11.086;2023-09-18T04:03:23;9.77;;;8.97;;
1414;SDS011;702;49.466;11.086;2023-09-18T04:05:51;9.60;;;8.70;;
1414;SDS011;702;49.466;11.086;2023-09-18T04:08:19;9.30;;;8.50;;
1414;SDS011;702;49.466;11.086;2023-09-18T04:10:46;9.60;;;8.70;;
1414;SDS011;702;49.466;11.086;2023-09-18T04:13:15;8.60;;;7.90;;
1414;SDS011;702;49.466;11.086;2023-09-18T04:15:43;9.80;;;8.60;;
1414;SDS011;702;49.466;11.086;2023-09-18T04:18:11;9.70;;;8.70;;
1414;SDS011;702;49.466;11.086;2023-09-18T04:20:38;8.97;;;8.13;;
1414;SDS011;702;49.466;11.086;2023-09-18T04:23:19;8.83;;;8.13;;
1414;SDS011;702;49.466;11.086;2023-09-18T04:25:49;8.87;;;8.07;;
1414;SDS011;702;49.466;11.086;2023-09-18T04:28:21;10.50;;;8.63;;
1414;SDS011;702;49.466;11.086;2023-09-18T04:30:49;10.10;;;9.10;;
1414;SDS011;702;49.466;11.086;2023-09-18T04:33:16;9.57;;;8.67;;
1414;SDS011;702;49.466;11.086;2023-09-18T04:35:44;9.07;;;8.27;;
1414;SDS011;702;49.466;11.086;2023-09-18T04:38:12;8.60;;;7.90;;
1414;SDS011;702;49.466;11.086;2023-09-18T04:40:40;10.50;;;8.53;;
1414;SDS011;702;49.466;11.086;2023-09-18T04:43:08;9.30;;;8.40;;
1414;SDS011;702;49.466;11.086;2023-09-18T04:45:37;10.23;;;9.03;;
1414;SDS011;702;49.466;11.086;2023-09-18T04:48:04;9.90;;;8.93;;
1414;SDS011;702;49.466;11.086;2023-09-18T04:50:34;9.70;;;8.90;;
1414;SDS011;702;49.466;11.086;2023-09-18T04:53:01;10.00;;;9.00;;
1414;SDS011;702;49.466;11.086;2023-09-18T04:55:30;9.03;;;8.30;;
1414;SDS011;702;49.466;11.086;2023-09-18T04:57:57;9.53;;;8.63;;
1414;SDS011;702;49.466;11.086;2023-09-18T05:00:24;9.83;;;9.03;;
1414;SDS011;702;49.466;11.086;2023-09-18T05:02:54;10.10;;;8.53;;
1414;SDS011;702;49.466;11.086;2023-09-18T05:05:23;9.97;;;8.87;;
1414;SDS011;702;49.466;11.086;2023-09-18T05:07:50;8.40;;;7.70;;
1414;SDS011;702;49.466;11.086;2023-09-18T05:10:18;9.57;;;8.67;;
1414;SDS011;702;49.466;11.086;2023-09-18T05:12:45;8.97;;;8.07;;
1414;SDS011;702;49.466;11.086;2023-09-18T05:15:14;9.00;;;8.10;;
1414;SDS011;702;49.466;11.086;2023-09-18T05:17:42;11.03;;;7.70;;
1414;SDS011;702;49.466;11.086;2023-09-18T05:20:18;8.63;;;7.93;;
1414;SDS011;702;49.466;11.086;2023-09-18T05:22:46;8.97;;;8.20;;
1414;SDS011;702;49.466;11.086;2023-09-18T05:25:14;9.83;;;8.93;;
1414;SDS011;702;49.466;11.086;2023-09-18T05:27:43;8.63;;;7.83;;
1414;SDS011;702;49.466;11.086;2023-09-18T05:30:12;8.90;;;8.00;;
1414;SDS011;702;49.466;11.086;2023-09-18T05:32:41;8.67;;;7.97;;
1414;SDS011;702;49.466;11.086;2023-09-18T05:35:10;8.60;;;7.90;;
1414;SDS011;702;49.466;11.086;2023-09-18T05:37:39;8.37;;;7.67;;
1414;SDS011;702;49.466;11.086;2023-09-18T05:40:08;8.47;;;7.80;;
1414;SDS011;702;49.466;11.086;2023-09-18T05:42:38;8.93;;;8.03;;
1414;SDS011;702;49.466;11.086;2023-09-18T05:45:09;9.53;;;8.67;;
1414;SDS011;702;49.466;11.086;2023-09-18T05:47:37;9.17;;;8.37;;
1414;SDS011;702;49.466;11.086;2023-09-18T05:50:05;9.70;;;8.73;;
1414;SDS011;702;49.466;11.086;2023-09-18T05:52:35;9.07;;;8.27;;
1414;SDS011;702;49.466;11.086;2023-09-18T05:55:04;13.00;;;10.17;;
1414;SDS011;702;49.466;11.086;2023-09-18T05:57:33;10.53;;;9.43;;
1414;SDS011;702;49.466;11.086;2023-09-18T06:00:02;9.77;;;8.63;;
1414;SDS011;702;49.466;11.086;2023-09-18T06:02:31;11.00;;;8.80;;
1414;SDS011;702;49.466;11.086;2023-09-18T06:04:59;10.60;;;9.50;;
1414;SDS011;702;49.466;11.086;2023-09-18T06:07:31;10.90;;;9.90;;
1414;SDS011;702;49.466;11.086;2023-09-18T06:09:59;11.13;;;10.00;;
1414;SDS011;702;49.466;11.086;2023-09-18T06:12:28;9.63;;;8.73;;
1414;SDS011;702;49.466;11.086;2023-09-18T06:14:55;9.27;;;8.30;;
1414;SDS011;702;49.466;11.086;2023-09-18T06:17:23;9.03;;;8.23;;
1414;SDS011;702;49.466;11.086;2023-09-18T06:19:52;9.97;;;8.60;;
1414;SDS011;702;49.466;11.086;2023-09-18T06:22:19;10.17;;;8.70;;
1414;SDS011;702;49.466;11.086;2023-09-18T06:24:46;8.63;;;7.80;;
1414;SDS011;702;49.466;11.086;2023-09-18T06:27:13;7.90;;;7.23;;
1414;SDS011;702;49.466;11.086;2023-09-18T06:29:41;8.83;;;8.13;;
1414;SDS011;702;49.466;11.086;2023-09-18T06:32:10;9.47;;;8.57;;
1414;SDS011;702;49.466;11.086;2023-09-18T06:34:37;20.57;;;8.63;;
1414;SDS011;702;49.466;11.086;2023-09-18T06:37:09;8.70;;;7.87;;
1414;SDS011;702;49.466;11.086;2023-09-18T06:39:37;9.90;;;8.10;;
1414;SDS011;702;49.466;11.086;2023-09-18T06:42:05;9.60;;;8.70;;
1414;SDS011;702;49.466;11.086;2023-09-18T06:44:33;9.50;;;8.00;;
1414;SDS011;702;49.466;11.086;2023-09-18T06:47:02;10.50;;;8.23;;
1414;SDS011;702;49.466;11.086;2023-09-18T06:49:30;8.90;;;8.10;;
1414;SDS011;702;49.466;11.086;2023-09-18T06:51:58;8.80;;;7.90;;
1414;SDS011;702;49.466;11.086;2023-09-18T06:54:25;8.70;;;7.83;;
1414;SDS011;702;49.466;11.086;2023-09-18T06:56:53;8.77;;;7.97;;
1414;SDS011;702;49.466;11.086;2023-09-18T06:59:21;8.43;;;7.73;;
1414;SDS011;702;49.466;11.086;2023-09-18T07:01:49;8.90;;;7.80;;
1414;SDS011;702;49.466;11.086;2023-09-18T07:04:17;9.07;;;8.17;;
1414;SDS011;702;49.466;11.086;2023-09-18T07:06:44;8.73;;;7.83;;
1414;SDS011;702;49.466;11.086;2023-09-18T07:09:13;9.00;;;8.10;;
1414;SDS011;702;49.466;11.086;2023-09-18T07:11:40;8.10;;;7.50;;
1414;SDS011;702;49.466;11.086;2023-09-18T07:14:08;8.00;;;7.20;;
1414;SDS011;702;49.466;11.086;2023-09-18T07:16:35;8.50;;;7.77;;
1414;SDS011;702;49.466;11.086;2023-09-18T07:19:02;10.40;;;8.07;;
1414;SDS011;702;49.466;11.086;2023-09-18T07:21:33;9.00;;;7.40;;
1414;SDS011;702;49.466;11.086;2023-09-18T07:24:01;7.80;;;7.10;;
1414;SDS011;702;49.466;11.086;2023-09-18T07:26:30;9.00;;;7.60;;
1414;SDS011;702;49.466;11.086;2023-09-18T07:28:57;9.17;;;7.13;;
1414;SDS011;702;49.466;11.086;2023-09-18T07:31:24;9.67;;;6.90;;
1414;SDS011;702;49.466;11.086;2023-09-18T07:33:53;8.00;;;7.20;;
1414;SDS011;702;49.466;11.086;2023-09-18T07:36:20;7.20;;;6.50;;
1414;SDS011;702;49.466;11.086;2023-09-18T07:38:49;7.40;;;6.70;;
1414;SDS011;702;49.466;11.086;2023-09-18T07:41:17;7.30;;;6.60;;
1414;SDS011;702;49.466;11.086;2023-09-18T07:43:46;7.87;;;7.07;;
1414;SDS011;702;49.466;11.086;2023-09-18T07:46:14;8.10;;;6.83;;
1414;SDS011;702;49.466;11.086;2023-09-18T07:48:41;6.43;;;5.80;;
1414;SDS011;702;49.466;11.086;2023-09-18T07:51:10;8.63;;;7.10;;
1414;SDS011;702;49.466;11.086;2023-09-18T07:53:39;7.00;;;6.40;;
1414;SDS011;702;49.466;11.086;2023-09-18T07:56:08;6.57;;;5.77;;
1414;SDS011;702;49.466;11.086;2023-09-18T07:58:35;6.47;;;5.83;;
1414;SDS011;702;49.466;11.086;2023-09-18T08:01:05;9.40;;;6.17;;
1414;SDS011;702;49.466;11.086;2023-09-18T08:03:34;7.43;;;6.73;;
1414;SDS011;702;49.466;11.086;2023-09-18T08:06:01;6.93;;;6.07;;
1414;SDS011;702;49.466;11.086;2023-09-18T08:08:29;7.00;;;6.37;;
1414;SDS011;702;49.466;11.086;2023-09-18T08:10:58;7.83;;;6.33;;
1414;SDS011;702;49.466;11.086;2023-09-18T08:13:35;8.73;;;6.13;;
1414;SDS011;702;49.466;11.086;2023-09-18T08:16:05;6.60;;;6.00;;
1414;SDS011;702;49.466;11.086;2023-09-18T08:18:33;6.47;;;5.90;;
1414;SDS011;702;49.466;11.086;2023-09-18T08:21:01;10.17;;;6.07;;
1414;SDS011;702;49.466;11.086;2023-09-18T08:23:29;6.03;;;5.57;;
1414;SDS011;702;49.466;11.086;2023-09-18T08:25:58;6.93;;;5.87;;
1414;SDS011;702;49.466;11.086;2023-09-18T08:28:26;7.50;;;6.10;;
1414;SDS011;702;49.466;11.086;2023-09-18T08:30:55;7.07;;;6.37;;
1414;SDS011;702;49.466;11.086;2023-09-18T08:33:23;8.67;;;6.50;;
1414;SDS011;702;49.466;11.086;2023-09-18T08:35:52;6.30;;;5.70;;
1414;SDS011;702;49.466;11.086;2023-09-18T08:38:19;9.67;;;5.43;;
1414;SDS011;702;49.466;11.086;2023-09-18T08:40:47;9.90;;;5.00;;
1414;SDS011;702;49.466;11.086;2023-09-18T08:43:14;6.83;;;5.13;;
1414;SDS011;702;49.466;11.086;2023-09-18T08:45:45;9.27;;;5.23;;
1414;SDS011;702;49.466;11.086;2023-09-18T08:48:19;9.50;;;5.23;;
1414;SDS011;702;49.466;11.086;2023-09-18T08:50:47;8.87;;;6.00;;
1414;SDS011;702;49.466;11.086;2023-09-18T08:53:18;9.00;;;5.73;;
1414;SDS011;702;49.466;11.086;2023-09-18T08:55:45;8.83;;;5.83;;
1414;SDS011;702;49.466;11.086;2023-09-18T08:58:12;12.13;;;4.50;;
1414;SDS011;702;49.466;11.086;2023-09-18T09:00:45;8.40;;;4.87;;
1414;SDS011;702;49.466;11.086;2023-09-18T09:03:12;5.73;;;4.63;;
1414;SDS011;702;49.466;11.086;2023-09-18T09:05:41;11.10;;;4.97;;
1414;SDS011;702;49.466;11.086;2023-09-18T09:08:08;5.63;;;4.50;;
1414;SDS011;702;49.466;11.086;2023-09-18T09:10:35;11.20;;;4.60;;
1414;SDS011;702;49.466;11.086;2023-09-18T09:13:04;6.07;;;4.47;;
1414;SDS011;702;49.466;11.086;2023-09-18T09:15:32;7.97;;;4.80;;
1414;SDS011;702;49.466;11.086;2023-09-18T09:18:12;9.63;;;4.30;;
1414;SDS011;702;49.466;11.086;2023-09-18T09:20:42;4.17;;;3.70;;
1414;SDS011;702;49.466;11.086;2023-09-18T09:23:22;9.10;;;4.20;;
1414;SDS011;702;49.466;11.086;2023-09-18T09:25:52;5.30;;;3.27;;
1414;SDS011;702;49.466;11.086;2023-09-18T09:28:28;4.23;;;3.80;;
1414;SDS011;702;49.466;11.086;2023-09-18T09:30:59;10.47;;;3.70;;
1414;SDS011;702;49.466;11.086;2023-09-18T09:33:29;6.00;;;3.83;;
1414;SDS011;702;49.466;11.086;2023-09-18T09:35:58;4.80;;;3.30;;
1414;SDS011;702;49.466;11.086;2023-09-18T09:38:29;5.33;;;3.60;;
1414;SDS011;702;49.466;11.086;2023-09-18T09:41:00;4.93;;;3.93;;
1414;SDS011;702;49.466;11.086;2023-09-18T09:43:31;6.90;;;3.60;;
1414;SDS011;702;49.466;11.086;2023-09-18T09:46:00;3.80;;;3.40;;
1414;SDS011;702;49.466;11.086;2023-09-18T09:48:29;6.23;;;3.10;;
1414;SDS011;702;49.466;11.086;2023-09-18T09:50:59;4.30;;;3.67;;
1414;SDS011;702;49.466;11.086;2023-09-18T09:56:13;12.93;;;3.33;;
1414;SDS011;702;49.466;11.086;2023-09-18T09:58:39;5.20;;;3.40;;
1414;SDS011;702;49.466;11.086;2023-09-18T10:01:09;6.60;;;3.50;;
1414;SDS011;702;49.466;11.086;2023-09-18T10:03:44;3.80;;;3.40;;
1414;SDS011;702;49.466;11.086;2023-09-18T10:06:13;6.13;;;3.03;;
1414;SDS011;702;49.466;11.086;2023-09-18T10:08:40;7.87;;;3.30;;
1414;SDS011;702;49.466;11.086;2023-09-18T10:11:09;5.70;;;3.20;;
1414;SDS011;702;49.466;11.086;2023-09-18T10:13:42;8.80;;;3.27;;
1414;SDS011;702;49.466;11.086;2023-09-18T10:16:15;8.33;;;2.60;;
1414;SDS011;702;49.466;11.086;2023-09-18T10:18:50;9.90;;;2.80;;
1414;SDS011;702;49.466;11.086;2023-09-18T10:21:26;5.20;;;2.63;;
1414;SDS011;702;49.466;11.086;2023-09-18T10:24:04;4.70;;;2.50;;
1414;SDS011;702;49.466;11.086;2023-09-18T10:26:48;3.87;;;2.30;;
1414;SDS011;702;49.466;11.086;2023-09-18T10:29:22;4.43;;;2.13;;
1414;SDS011;702;49.466;11.086;2023-09-18T10:31:50;3.57;;;2.00;;
1414;SDS011;702;49.466;11.086;2023-09-18T10:34:19;3.13;;;1.97;;
1414;SDS011;702;49.466;11.086;2023-09-18T10:36:49;4.30;;;2.17;;
1414;SDS011;702;49.466;11.086;2023-09-18T10:39:19;2.87;;;2.00;;
1414;SDS011;702;49.466;11.086;2023-09-18T10:41:50;4.40;;;2.33;;
1414;SDS011;702;49.466;11.086;2023-09-18T10:44:21;8.53;;;2.60;;
1414;SDS011;702;49.466;11.086;2023-09-18T10:46:49;5.93;;;2.70;;
1414;SDS011;702;49.466;11.086;2023-09-18T10:49:19;7.13;;;3.10;;
1414;SDS011;702;49.466;11.086;2023-09-18T10:51:47;9.53;;;5.70;;
1414;SDS011;702;49.466;11.086;2023-09-18T10:54:20;6.47;;;3.93;;
1414;SDS011;702;49.466;11.086;2023-09-18T10:56:49;9.17;;;3.90;;
1414;SDS011;702;49.466;11.086;2023-09-18T10:59:16;3.73;;;2.20;;
1414;SDS011;702;49.466;11.086;2023-09-18T11:01:44;7.77;;;2.93;;
1414;SDS011;702;49.466;11.086;2023-09-18T11:04:13;4.77;;;2.00;;
1414;SDS011;702;49.466;11.086;2023-09-18T11:07:04;7.20;;;2.67;;
1414;SDS011;702;49.466;11.086;2023-09-18T11:09:32;6.53;;;2.20;;
1414;SDS011;702;49.466;11.086;2023-09-18T11:12:10;9.67;;;1.90;;
1414;SDS011;702;49.466;11.086;2023-09-18T11:14:41;5.93;;;2.03;;
1414;SDS011;702;49.466;11.086;2023-09-18T11:20:03;2.50;;;2.00;;
1414;SDS011;702;49.466;11.086;2023-09-18T11:22:38;5.37;;;2.07;;
1414;SDS011;702;49.466;11.086;2023-09-18T11:25:34;2.90;;;2.07;;
1414;SDS011;702;49.466;11.086;2023-09-18T11:28:04;3.93;;;1.80;;
1414;SDS011;702;49.466;11.086;2023-09-18T11:30:34;1.60;;;1.50;;
1414;SDS011;702;49.466;11.086;2023-09-18T11:33:03;3.60;;;2.00;;
1414;SDS011;702;49.466;11.086;2023-09-18T11:35:31;5.00;;;2.50;;
1414;SDS011;702;49.466;11.086;2023-09-18T11:38:04;2.50;;;1.00;;
1414;SDS011;702;49.466;11.086;2023-09-18T11:40:35;3.37;;;1.47;;
1414;SDS011;702;49.466;11.086;2023-09-18T11:43:20;5.63;;;1.20;;
1414;SDS011;702;49.466;11.086;2023-09-18T11:45:50;6.13;;;1.30;;
1414;SDS011;702;49.466;11.086;2023-09-18T11:48:20;3.03;;;1.40;;
1414;SDS011;702;49.466;11.086;2023-09-18T11:50:51;5.37;;;1.10;;
1414;SDS011;702;49.466;11.086;2023-09-18T11:53:21;2.30;;;1.30;;
1414;SDS011;702;49.466;11.086;2023-09-18T11:55:51;2.97;;;1.13;;
1414;SDS011;702;49.466;11.086;2023-09-18T11:58:19;2.27;;;1.07;;
1414;SDS011;702;49.466;11.086;2023-09-18T12:00:48;2.67;;;1.40;;
1414;SDS011;702;49.466;11.086;2023-09-18T12:03:16;4.67;;;1.53;;
1414;SDS011;702;49.466;11.086;2023-09-18T12:05:51;3.57;;;1.47;;
1414;SDS011;702;49.466;11.086;2023-09-18T12:08:22;3.90;;;1.50;;
1414;SDS011;702;49.466;11.086;2023-09-18T12:10:52;6.83;;;1.80;;
1414;SDS011;702;49.466;11.086;2023-09-18T12:13:20;2.97;;;1.43;;
1414;SDS011;702;49.466;11.086;2023-09-18T12:15:47;3.10;;;1.20;;
1414;SDS011;702;49.466;11.086;2023-09-18T12:18:15;3.20;;;1.07;;
1414;SDS011;702;49.466;11.086;2023-09-18T12:20:46;4.13;;;1.13;;
1414;SDS011;702;49.466;11.086;2023-09-18T12:23:15;5.10;;;1.50;;
1414;SDS011;702;49.466;11.086;2023-09-18T12:25:46;4.77;;;1.50;;
1414;SDS011;702;49.466;11.086;2023-09-18T12:28:17;3.10;;;1.33;;
1414;SDS011;702;49.466;11.086;2023-09-18T12:30:44;2.77;;;1.50;;
1414;SDS011;702;49.466;11.086;2023-09-18T12:33:12;3.27;;;1.50;;
1414;SDS011;702;49.466;11.086;2023-09-18T12:35:40;2.73;;;1.73;;
1414;SDS011;702;49.466;11.086;2023-09-18T12:38:17;2.50;;;1.33;;
1414;SDS011;702;49.466;11.086;2023-09-18T12:40:51;4.97;;;1.63;;
1414;SDS011;702;49.466;11.086;2023-09-18T12:43:20;4.00;;;1.93;;
1414;SDS011;702;49.466;11.086;2023-09-18T12:45:49;5.27;;;1.90;;
1414;SDS011;702;49.466;11.086;2023-09-18T12:48:17;2.37;;;1.77;;
1414;SDS011;702;49.466;11.086;2023-09-18T12:50:45;2.27;;;1.33;;
1414;SDS011;702;49.466;11.086;2023-09-18T12:53:21;3.30;;;1.37;;
1414;SDS011;702;49.466;11.086;2023-09-18T12:55:49;4.37;;;1.93;;
1414;SDS011;702;49.466;11.086;2023-09-18T12:58:18;2.40;;;1.47;;
1414;SDS011;702;49.466;11.086;2023-09-18T13:00:46;1.63;;;1.40;;
1414;SDS011;702;49.466;11.086;2023-09-18T13:03:15;7.70;;;2.07;;
1414;SDS011;702;49.466;11.086;2023-09-18T13:05:43;3.83;;;1.80;;
1414;SDS011;702;49.466;11.086;2023-09-18T13:08:12;2.70;;;1.70;;
1414;SDS011;702;49.466;11.086;2023-09-18T13:10:42;2.53;;;1.30;;
1414;SDS011;702;49.466;11.086;2023-09-18T13:13:18;2.67;;;1.80;;
1414;SDS011;702;49.466;11.086;2023-09-18T13:15:48;3.23;;;1.83;;
1414;SDS011;702;49.466;11.086;2023-09-18T13:18:16;3.87;;;1.60;;
1414;SDS011;702;49.466;11.086;2023-09-18T13:20:45;2.93;;;1.97;;
1414;SDS011;702;49.466;11.086;2023-09-18T13:23:12;3.97;;;1.70;;
1414;SDS011;702;49.466;11.086;2023-09-18T13:25:41;3.07;;;1.33;;
1414;SDS011;702;49.466;11.086;2023-09-18T13:28:10;2.40;;;1.57;;
1414;SDS011;702;49.466;11.086;2023-09-18T13:30:41;2.23;;;1.47;;
1414;SDS011;702;49.466;11.086;2023-09-18T13:33:10;1.90;;;1.30;;
1414;SDS011;702;49.466;11.086;2023-09-18T13:35:42;5.80;;;1.60;;
1414;SDS011;702;49.466;11.086;2023-09-18T13:38:13;1.10;;;1.00;;
1414;SDS011;702;49.466;11.086;2023-09-18T13:40:41;4.20;;;1.50;;
1414;SDS011;702;49.466;11.086;2023-09-18T13:43:10;3.97;;;1.40;;
1414;SDS011;702;49.466;11.086;2023-09-18T13:45:41;1.57;;;1.13;;
1414;SDS011;702;49.466;11.086;2023-09-18T13:48:09;2.77;;;1.40;;
1414;SDS011;702;49.466;11.086;2023-09-18T13:50:37;4.90;;;1.83;;
1414;SDS011;702;49.466;11.086;2023-09-18T13:53:05;5.37;;;1.37;;
1414;SDS011;702;49.466;11.086;2023-09-18T13:55:33;3.90;;;1.73;;
1414;SDS011;702;49.466;11.086;2023-09-18T13:58:00;3.80;;;1.70;;
1414;SDS011;702;49.466;11.086;2023-09-18T14:00:30;3.20;;;1.60;;
1414;SDS011;702;49.466;11.086;2023-09-18T14:02:59;3.53;;;1.47;;
1414;SDS011;702;49.466;11.086;2023-09-18T14:05:28;3.27;;;1.73;;
1414;SDS011;702;49.466;11.086;2023-09-18T14:07:56;4.47;;;2.50;;
1414;SDS011;702;49.466;11.086;2023-09-18T14:10:25;1.80;;;1.30;;
1414;SDS011;702;49.466;11.086;2023-09-18T14:12:53;1.60;;;1.10;;
1414;SDS011;702;49.466;11.086;2023-09-18T14:15:22;2.83;;;1.33;;
1414;SDS011;702;49.466;11.086;2023-09-18T14:17:49;3.30;;;1.83;;
1414;SDS011;702;49.466;11.086;2023-09-18T14:20:19;8.20;;;1.80;;
1414;SDS011;702;49.466;11.086;2023-09-18T14:22:46;2.60;;;0.90;;
1414;SDS011;702;49.466;11.086;2023-09-18T14:25:15;5.63;;;1.50;;
1414;SDS011;702;49.466;11.086;2023-09-18T14:27:42;1.70;;;1.37;;
1414;SDS011;702;49.466;11.086;2023-09-18T14:30:10;1.73;;;1.53;;
1414;SDS011;702;49.466;11.086;2023-09-18T14:32:39;1.73;;;1.10;;
1414;SDS011;702;49.466;11.086;2023-09-18T14:35:07;5.17;;;1.70;;
1414;SDS011;702;49.466;11.086;2023-09-18T14:37:37;1.93;;;1.70;;
1414;SDS011;702;49.466;11.086;2023-09-18T14:40:06;3.07;;;1.53;;
1414;SDS011;702;49.466;11.086;2023-09-18T14:42:37;2.50;;;1.40;;
1414;SDS011;702;49.466;11.086;2023-09-18T14:45:05;3.53;;;1.40;;
1414;SDS011;702;49.466;11.086;2023-09-18T14:47:35;1.33;;;1.23;;
1414;SDS011;702;49.466;11.086;2023-09-18T14:50:05;2.50;;;1.50;;
1414;SDS011;702;49.466;11.086;2023-09-18T14:52:34;1.50;;;1.37;;
1414;SDS011;702;49.466;11.086;2023-09-18T14:55:04;2.57;;;1.27;;
1414;SDS011;702;49.466;11.086;2023-09-18T14:57:32;2.90;;;1.63;;
1414;SDS011;702;49.466;11.086;2023-09-18T15:00:00;1.70;;;1.20;;
1414;SDS011;702;49.466;11.086;2023-09-18T15:02:31;5.70;;;1.77;;
1414;SDS011;702;49.466;11.086;2023-09-18T15:05:00;2.13;;;1.27;;
1414;SDS011;702;49.466;11.086;2023-09-18T15:07:30;1.87;;;1.23;;
1414;SDS011;702;49.466;11.086;2023-09-18T15:09:58;1.83;;;1.50;;
1414;SDS011;702;49.466;11.086;2023-09-18T15:12:26;1.73;;;1.00;;
1414;SDS011;702;49.466;11.086;2023-09-18T15:14:54;2.80;;;1.73;;
1414;SDS011;702;49.466;11.086;2023-09-18T15:17:22;5.37;;;1.50;;
1414;SDS011;702;49.466;11.086;2023-09-18T15:19:51;1.70;;;1.30;;
1414;SDS011;702;49.466;11.086;2023-09-18T15:22:20;2.40;;;1.83;;
1414;SDS011;702;49.466;11.086;2023-09-18T15:24:49;2.83;;;1.73;;
1414;SDS011;702;49.466;11.086;2023-09-18T15:27:18;2.53;;;1.80;;
1414;SDS011;702;49.466;11.086;2023-09-18T15:29:45;2.50;;;1.30;;
1414;SDS011;702;49.466;11.086;2023-09-18T15:32:13;1.80;;;1.43;;